ACT        NSW        VIC        QLD        SA        WA        TAS        NT        INFO        CALC            by VK5ZD

  Atmospheric Gas Attenuation - ITU Rec 676-11   --------------- db/100km ---------------
NSW Stations Date Time Temp RH % AH g/m3 Dew Point Wind Direction Speed kph Gust kph Barometer mB Rainfall Since 9am 24GHz 47GHz 76GHz 122GHz 134GHz 241GHz
Albion Park 11 22:10 12.5 52 5.72 2.9 20 24 1015 0 13.5 21.8 29.4 76.6 63.5 215.9
Albury 11 22:10 8.8 81 7.05 5.7 17 19 1018.9 0 16.5 25.0 36.2 94.6 84.1 287.7
Armidale Airport 11 22:10 3.3 77 4.68 -0.3 17 19 1014.7 0 11.6 22.5 28.8 74.8 57.5 193.8
Badgerys Creek 11 22:10 9.7 58 5.35 1.8 7 9 1013.1 0 12.8 21.9 29.0 75.5 61.1 207.1
Ballina 11 22:10 18.4 44 6.92 5.9 15 17 1013.3 0 15.8 22.1 31.4 82.2 72.6 248.6
Bankstown 11 22:10 13.1 45 5.14 1.5 13 19 1015.6 0 12.3 20.9 27.1 70.6 56.2 190.4
Bathurst Airport 11 22:10 5.6 69 4.88 0.4 19 20 1017 0 12.0 22.3 28.8 74.9 58.5 197.6
Bega 11 22:10 12.1 51 5.47 2.3 26 33 1013.8 0 13.0 21.5 28.6 74.5 60.7 206.2
Bellambi 11 22:10 14.1 44 5.34 2 35 41 1013.1 0 12.6 20.9 27.4 71.4 57.7 195.8
Bombala Aws 11 22:10 5.4 77 5.38 1.8 37 41 1013.1 0.6 13.0 23.0 30.7 80.0 64.9 220.0
Borrona Downs 11 22:10 12.9 50 5.64 2.7 1013.1 0 13.3 21.6 28.9 75.3 62.1 211.2
Bourke 11 22:10 13.5 34 3.98 -2 17 20 1020.4 0 9.8 19.3 23.2 60.0 43.0 143.9
Brewon 11 22:10 9.2 53 4.73 0.1 1013.1 0 11.5 21.1 26.9 69.8 53.9 181.9
Broken Hill Airport 11 22:10 12.8 43 4.82 0.5 13 15 1022.6 0 11.6 20.7 26.4 68.4 53.0 179.1
Camden 11 22:10 12 47 5.01 1.1 9 11 1015.7 0 12.0 21.0 27.0 70.3 55.5 187.6
Campbelltown 11 22:10 8.7 66 5.71 2.7 7 9 1013.1 0 13.6 22.7 30.7 80.1 66.4 225.6
Canterbury 11 22:10 12.9 42 4.73 0.3 15 20 1013.1 0 11.4 20.3 25.7 66.7 51.5 173.8
Casino 11 22:10 15.8 57 7.67 7.3 7 7 1014.2 0 17.5 23.9 35.3 92.4 84.2 289.1
Cessnock Airport 11 22:10 12.6 43 4.76 0.4 9 13 1015.1 0 11.5 20.4 25.9 67.4 52.1 175.9
Cobar 11 22:10 10.7 44 4.32 -1 7 9 1020.6 0 10.6 20.4 25.2 65.2 48.5 162.8
Coffs Harbour Airport 11 22:10 15.9 41 5.55 2.7 15 19 1015.2 0 13.0 20.8 27.6 71.9 58.9 200.3
Condobolin Airport 11 22:10 7.4 55 4.38 -1 7 9 1020 0 10.8 21.2 26.4 68.5 51.2 172.0
Cooma 11 15:00 10 44 4.14 -1.5 6 1013.1 0 10.2 20.1 24.5 63.5 46.4 155.7
Coonabarabran Airport 11 22:10 7.7 54 4.38 -1 19 20 1017.6 0 10.8 21.1 26.2 68.1 50.9 171.0
Coonamble 11 22:10 9 56 4.94 0.7 11 13 1019.6 0 12.0 21.7 27.9 72.6 56.9 192.4
Cowra 11 22:10 4.8 78 5.23 1.3 6 7 1018.5 0 12.7 23.1 30.5 79.5 63.8 215.8
Deniliquin 11 22:10 9.5 66 6.01 3.5 19 20 1021.4 0 14.2 23.3 31.9 83.1 70.0 238.3
Dubbo 11 22:10 6.4 67 4.99 0.7 11 13 1019.2 0 12.2 22.4 29.0 75.5 59.5 200.9
Evans Head 11 22:10 18.1 80 12.36 14.6 19 24 1013.3 0 27.4 30.8 52.9 139.5 143.1 495.4
Forbes 11 22:10 8.3 65 5.48 2.1 6 6 1019.1 0 13.1 22.7 30.2 78.7 64.2 217.7
Fowlers Gap 11 22:10 12.4 45 4.92 0.8 7 9 1022.3 0 11.8 21.0 26.8 69.6 54.5 184.1
Girilambone 11 22:10 9.1 66 5.86 3.1 1013.1 0 13.9 22.8 31.1 81.2 67.9 231.1
Glen Innes Airport 11 22:10 3.3 69 4.19 -1.8 9 11 1014.7 0 10.5 21.7 26.9 69.7 51.2 171.6
Gosford 11 22:10 13 51 5.78 3.3 11 15 1013.1 0 13.6 21.7 29.4 76.6 63.7 216.8
Grafton Agrs 11 22:10 15.6 55 7.31 6.6 13 13 1013.1 0 16.8 23.4 34.0 88.9 79.9 273.9
Grafton Airport 11 22:00 16.9 42 6.04 3.9 11 15 1014.7 0 14.0 21.3 29.0 75.5 63.7 217.4
Green Cape 11 22:10 12.6 73 8.08 7.9 59 74 1013.1 0.6 18.5 25.4 38.3 100.4 93.0 319.5
Griffith 11 22:10 11.3 59 6.02 3.6 13 19 1020.5 0 14.2 22.8 31.2 81.3 68.5 233.2
Gunnedah Airport 11 22:10 10.8 44 4.35 -0.9 17 20 1018 0 10.7 20.4 25.2 65.2 48.6 163.4
Hay Airport 11 22:10 10.1 59 5.58 2.5 13 15 1021.6 0 13.3 22.5 30.0 78.1 64.1 217.6
High Range (Wanganderry) 11 22:10 5.2 70 4.82 0.3 28 35 1013.1 0 11.8 22.2 28.6 74.3 57.9 195.2
Holsworthy 11 22:10 11.5 49 5.06 1.2 9 11 1015.3 0 12.1 21.1 27.4 71.2 56.4 190.8
Holsworthy (Defence) 11 22:10 10.9 51 5.07 1.1 9 17 1013.1 0 12.2 21.2 27.5 71.6 56.8 192.3
Horsley Park 11 22:10 12.1 46 4.93 0.8 9 11 1013.1 0 11.8 20.7 26.6 69.2 54.3 183.7
Inverell 11 15:00 20.3 27 4.75 1 17 1013.1 0 11.2 18.8 23.6 61.1 47.2 159.6
Inverell Rs 11 22:10 8.8 53 4.61 -0.2 7 9 1016.6 0 11.3 21.1 26.7 69.3 52.9 178.2
Ivanhoe Airport 11 22:10 10.7 48 4.72 0.2 9 11 1021.4 0 11.5 21.0 26.6 69.1 53.2 179.4
Kapooka (Defence) 11 22:10 9.7 65 5.99 3.4 20 28 1013.1 0 14.2 22.9 31.4 81.9 69.1 235.1
Kempsey Airport 11 22:10 10.1 70 6.62 4.9 7 9 1015.7 0 15.5 23.8 33.8 88.2 76.9 262.6
Khancoban 11 22:10 6.7 100 7.6 6.7 0 0 1017.7 0.8 17.8 26.5 39.4 103.3 94.0 322.0
Kiama 11 22:10 13.4 44 5.12 1.4 17 22 1013.1 0 12.2 20.7 26.9 69.9 55.6 188.5
Lake Macquarie - Cooranbong 11 22:10 13.5 46 5.38 2.1 9 13 1013.1 0 12.8 21.1 27.8 72.3 58.6 198.9
Lismore Airport 11 22:10 16.2 50 6.89 5.8 11 13 1013.8 0 15.8 22.6 32.2 84.2 74.3 254.3
Lord Howe Island 11 22:10 20.6 65 11.63 13.8 35 43 1010.9 0 25.7 28.6 48.1 126.8 128.4 444.4
Lucas Heights (Ansto) 11 22:00 11.3 45 4.59 0 28 35 1013.1 0 11.2 20.4 25.7 66.7 50.9 171.5
Maitland Airport 11 22:10 11.5 50 5.17 1.5 9 11 1016.1 0 12.4 21.3 27.8 72.3 57.7 195.5
Mangrove Mountain 11 22:10 9.3 49 4.4 -0.9 6 7 1013.1 0 10.8 20.6 25.6 66.6 49.9 167.8
Marrangaroo (Defence) 11 22:10 4.2 68 4.39 -1.2 4 4 1013.1 0 10.9 21.8 27.3 70.8 53.1 178.3
Merimbula 11 22:10 12.2 55 5.94 3.4 24 32 1013.2 0.2 14.0 22.2 30.2 78.9 66.3 225.8
Merriwa 11 22:10 5.1 69 4.72 -0.1 9 9 1018.3 0 11.6 22.2 28.4 73.9 56.9 191.8
Moree 11 22:10 11.5 46 4.75 0.3 19 26 1018 0 11.5 20.8 26.4 68.4 52.9 178.4
Moruya Heads 11 15:00 18.3 31 4.85 1.1 30 1008.4 0 11.5 19.1 24.3 63.1 49.2 166.6
Moss Vale 11 22:10 6.4 70 5.22 1.3 28 32 1014.1 0 12.7 22.5 29.7 77.4 62.1 210.2
Mount Boyce 11 22:10 3.6 70 4.34 -1.3 22 26 1013.1 0 10.9 21.8 27.3 70.9 52.9 177.4
Mount Hope 11 22:10 7.9 59 4.85 0.4 1013.1 0 11.8 21.6 27.7 72.2 56.3 190.0
Mudgee 11 22:10 7.1 60 4.68 -0.1 11 11 1017.9 0 11.5 21.7 27.6 71.6 55.0 185.3
Mulurulu 11 22:10 9.3 52 4.67 -0.1 1013.1 0 11.4 21.0 26.6 69.2 53.1 179.1
Murrurundi Gap 11 22:10 7.4 51 4.06 -2.1 6 6 1016.2 0 10.1 20.6 25.1 65.1 47.2 157.8
Narrabri 11 22:10 8.1 59 4.91 0.6 9 11 1018.7 0 11.9 21.8 28.1 73.0 57.2 193.1
Narrandera Airport 11 22:10 9.7 60 5.53 2.3 9 13 1020.2 0 13.2 22.4 29.9 77.9 63.7 216.3
Nelson Bay 11 15:00 19 47 7.66 7.4 33 1013.1 0 17.4 23.0 33.8 88.6 80.7 277.1
Nerriga 11 22:10 6.5 69 5.18 1.2 19 22 1013.1 0 12.6 22.4 29.5 76.8 61.5 208.0
Newcastle Nobbys 11 22:10 13.6 49 5.77 3.1 17 20 1013.1 0 13.6 21.6 29.1 75.9 63.1 214.7
Noona 11 22:10 12 45 4.8 0.4 1013.1 0 11.6 20.6 26.2 68.1 52.9 178.6
Norah Head 11 22:10 13.1 50 5.71 2.9 6 7 1013.1 0 13.5 21.6 29.1 75.8 62.8 213.6
Norfolk Island 11 22:00 19.7 93 15.79 18.5 11 15 1010.5 0 34.6 36.3 67.0 176.9 189.7 658.1
Nullo Mountain 11 22:10 3 71 4.23 -1.8 15 20 1013.1 0 10.6 21.8 27.0 70.3 51.9 173.8
Orange Airport 11 22:10 2.4 79 4.52 -0.9 7 7 1016.5 0.6 11.3 22.5 28.5 74.1 56.2 188.9
Parkes Airport 11 22:10 3.6 79 4.89 0.3 7 9 1019 0 12.0 22.9 29.6 77.1 60.3 203.4
Penrith 11 22:10 12.2 51 5.5 2.3 4 6 1013.1 0 13.1 21.5 28.6 74.6 61.0 207.1
Point Perpendicular 11 22:10 13.6 55 6.47 4.7 9 19 1014 0 15.1 22.7 31.7 82.8 71.6 244.5
Port Macquarie Airport 11 22:10 13.7 48 5.68 2.9 7 7 1015.9 0 13.4 21.5 28.9 75.2 62.1 211.3
Portable Npws Nsw02 11 22:00 5.3 60 4.16 -1.7 26 30 1013.1 0 10.4 21.1 26.0 67.6 49.5 165.9
Portable Rfsnsw01 11 22:00 10.4 49 4.72 0.2 6 7 1013.1 0 11.5 20.8 26.4 68.7 53.0 178.8
Portable Rfsnsw02 11 21:50 6.2 78 5.74 2.6 2 4 1013.1 0 13.8 23.4 31.8 83.0 68.9 234.2
Portable Rfsnsw03 11 21:50 6.6 65 4.91 0.5 9 15 1013.1 0 12.0 22.0 28.4 74.0 58.0 195.8
Portable Rfsnsw04 11 21:50 11.1 50 5.04 1.1 4 6 1013.1 0 12.1 21.1 27.4 71.2 56.3 190.5
Portable Rfsnsw10 11 21:50 11.4 43 4.41 -0.6 7 11 1013.1 0 10.8 20.1 25.0 64.9 48.7 163.9
Portable Rfsnsw20 11 22:00 9.3 46 4.14 -1.8 13 13 1013.1 0 10.3 20.2 24.7 64.1 46.9 157.0
Portable Rfsnsw51 11 22:00 8.9 67 5.87 3.2 19 20 1013.1 0 14.0 22.9 31.2 81.5 68.2 232.1
Portable Rfsnsw52 11 22:00 6.3 80 5.93 3.2 9 11 1013.1 0 14.2 23.7 32.5 84.9 71.3 242.6
Portable Rfsnsw53 11 22:00 9.2 60 5.36 1.9 13 13 1013.1 0 12.9 22.0 29.2 76.0 61.6 208.9
Portable Rfsnsw55 11 22:00 9.5 49 4.46 -0.6 6 7 1013.1 0 10.9 20.6 25.8 67.0 50.5 169.9
Portable Wn01 (Water Nsw) 11 22:00 10.1 52 4.92 0.8 11 13 1013.1 0 11.9 21.2 27.3 70.9 55.6 187.8
Richmond 11 22:10 11.1 55 5.54 2.4 13 15 1015.8 0 13.2 21.9 29.3 76.3 62.5 212.1
Scone Airport 11 22:10 8.2 55 4.61 -0.3 2 6 1017.5 0 11.3 21.3 26.9 69.9 53.4 179.7
Singleton (Defence) 11 22:10 10.5 53 5.14 1.3 11 13 1013.1 0 12.3 21.4 27.9 72.7 57.9 196.2
Smithville 11 22:10 13.9 43 5.16 1.5 1013.1 0 12.3 20.7 26.9 69.9 55.8 188.9
Sydney - Observatory Hill 11 22:10 13.3 48 5.55 2.5 22 1014.7 0 13.1 21.4 28.5 74.2 60.8 206.7
Sydney Airport 11 22:10 13.1 44 5.02 1.1 19 20 1015.4 0 12.0 20.7 26.7 69.4 54.8 185.5
Sydney Olympic Park 11 22:10 13.3 47 5.43 2.2 13 20 1013.1 0 12.9 21.2 28.0 72.9 59.3 201.4
Tamworth Airport 11 22:10 7 65 5.04 0.9 9 9 1017.7 0 12.3 22.2 28.9 75.3 59.5 201.3
Taree Airport 11 22:10 11.9 55 5.83 3.2 1015.7 0 13.8 22.2 30.0 78.3 65.4 222.4
Temora 11 22:10 5.2 73 5.03 0.8 0 0 1019.3 0 12.3 22.7 29.6 77.1 60.9 205.7
Terrey Hills 11 22:10 11.1 51 5.14 1.3 11 15 1013.1 0 12.3 21.3 27.7 72.1 57.5 194.7
Thredbo Village 11 15:00 1.2 90 4.74 -0.3 9 1013.1 4 11.8 23.1 29.7 77.4 59.8 201.5
Tibooburra Airport 11 22:10 15.6 33 4.39 -0.6 20 24 1021.5 0 10.6 19.5 24.0 62.1 46.4 156.2
Tocal 11 22:10 13.2 42 4.82 0.6 1013.1 0 11.6 20.3 25.9 67.3 52.3 176.8
Trangie 11 22:10 7.4 70 5.57 2.3 6 7 1020.1 0 13.4 23.1 30.9 80.6 66.1 224.4
Wagga Wagga 11 22:10 9.1 69 6.12 3.7 1018.3 0 14.5 23.4 32.3 84.4 71.6 243.8
Walgett 11 22:10 8.8 56 4.88 0.5 13 13 1019.7 0 11.9 21.6 27.8 72.2 56.3 190.3
West Wyalong 11 22:10 9.3 54 4.85 0.5 13 13 1019.4 0 11.8 21.5 27.5 71.4 55.6 187.8
White Cliffs Aws 11 22:10 13.4 39 4.53 -0.3 11 13 1021.8 0 11.0 20.2 25.1 65.1 49.3 166.0
Wilcannia Airport 11 22:10 11.1 45 4.53 -0.4 11 13 1022 0 11.0 20.7 25.9 67.0 50.7 170.8
Williamtown 11 22:10 12.1 51 5.47 2.3 20 24 1015.5 0 13.0 21.6 28.7 74.6 60.8 206.5
Yamba 11 22:10 20.7 68 12.24 14.6 20 22 1013.8 0 27.0 29.7 50.7 133.7 136.8 473.5
Yanco 11 22:10 10.3 61 5.84 3.1 17 20 1013.1 0 13.8 22.5 30.6 79.8 66.7 226.8
Young 11 22:10 3.3 90 5.47 1.8 6 7 1017.9 0 13.3 23.9 32.1 83.6 68.2 231.1

Last Refresh: 11-Apr-2021 22:01:56

Bureau of Meteorology